sensor_id;sensor_type;location;lat;lon;timestamp;temperature;humidity
16301;DHT22;8258;51.020;4.248;2023-12-14T00:00:20;8.70;99.90
16301;DHT22;8258;51.020;4.248;2023-12-14T00:02:49;8.80;99.90
16301;DHT22;8258;51.020;4.248;2023-12-14T00:05:21;8.80;99.90
16301;DHT22;8258;51.020;4.248;2023-12-14T00:07:52;8.80;99.90
16301;DHT22;8258;51.020;4.248;2023-12-14T00:10:19;8.80;99.90
16301;DHT22;8258;51.020;4.248;2023-12-14T00:12:47;8.70;99.90
16301;DHT22;8258;51.020;4.248;2023-12-14T00:15:17;8.80;99.90
16301;DHT22;8258;51.020;4.248;2023-12-14T00:17:48;8.80;99.90
16301;DHT22;8258;51.020;4.248;2023-12-14T00:20:23;8.80;99.90
16301;DHT22;8258;51.020;4.248;2023-12-14T00:22:51;8.80;99.90
16301;DHT22;8258;51.020;4.248;2023-12-14T00:25:19;8.80;99.90
16301;DHT22;8258;51.020;4.248;2023-12-14T00:27:47;8.80;99.90
16301;DHT22;8258;51.020;4.248;2023-12-14T00:30:14;8.80;99.90
16301;DHT22;8258;51.020;4.248;2023-12-14T00:32:43;8.80;99.90
16301;DHT22;8258;51.020;4.248;2023-12-14T00:35:10;8.80;99.90
16301;DHT22;8258;51.020;4.248;2023-12-14T00:37:39;8.80;99.90
16301;DHT22;8258;51.020;4.248;2023-12-14T00:40:07;8.80;99.90
16301;DHT22;8258;51.020;4.248;2023-12-14T00:42:34;8.70;99.90
16301;DHT22;8258;51.020;4.248;2023-12-14T00:45:03;8.70;99.90
16301;DHT22;8258;51.020;4.248;2023-12-14T00:47:32;8.70;99.90
16301;DHT22;8258;51.020;4.248;2023-12-14T00:50:00;8.70;99.90
16301;DHT22;8258;51.020;4.248;2023-12-14T00:52:30;8.70;99.90
16301;DHT22;8258;51.020;4.248;2023-12-14T00:54:59;8.70;99.90
16301;DHT22;8258;51.020;4.248;2023-12-14T00:57:27;8.70;99.90
16301;DHT22;8258;51.020;4.248;2023-12-14T00:59:57;8.70;99.90
16301;DHT22;8258;51.020;4.248;2023-12-14T01:02:24;8.70;99.90
16301;DHT22;8258;51.020;4.248;2023-12-14T01:33:31;8.60;99.90
16301;DHT22;8258;51.020;4.248;2023-12-14T01:36:00;8.60;99.90
16301;DHT22;8258;51.020;4.248;2023-12-14T01:38:31;8.60;99.90
16301;DHT22;8258;51.020;4.248;2023-12-14T01:41:02;8.60;99.90
16301;DHT22;8258;51.020;4.248;2023-12-14T01:43:33;8.50;99.90
16301;DHT22;8258;51.020;4.248;2023-12-14T01:51:27;8.50;99.90
16301;DHT22;8258;51.020;4.248;2023-12-14T01:56:52;8.50;99.90
16301;DHT22;8258;51.020;4.248;2023-12-14T01:59:48;8.50;99.90
16301;DHT22;8258;51.020;4.248;2023-12-14T02:12:52;8.40;99.90
16301;DHT22;8258;51.020;4.248;2023-12-14T02:33:30;8.10;99.90
16301;DHT22;8258;51.020;4.248;2023-12-14T02:36:02;8.00;99.90
16301;DHT22;8258;51.020;4.248;2023-12-14T02:38:30;7.90;99.90
16301;DHT22;8258;51.020;4.248;2023-12-14T03:14:39;7.20;99.90
16301;DHT22;8258;51.020;4.248;2023-12-14T03:27:29;7.00;99.90
16301;DHT22;8258;51.020;4.248;2023-12-14T03:29:57;7.00;99.90
16301;DHT22;8258;51.020;4.248;2023-12-14T03:32:25;7.10;99.90
16301;DHT22;8258;51.020;4.248;2023-12-14T03:34:52;7.00;99.90
16301;DHT22;8258;51.020;4.248;2023-12-14T03:37:21;7.00;99.90
16301;DHT22;8258;51.020;4.248;2023-12-14T03:39:48;7.00;99.90
16301;DHT22;8258;51.020;4.248;2023-12-14T03:42:15;6.90;99.90
16301;DHT22;8258;51.020;4.248;2023-12-14T03:44:48;6.90;99.90
16301;DHT22;8258;51.020;4.248;2023-12-14T03:47:26;6.80;99.90
16301;DHT22;8258;51.020;4.248;2023-12-14T03:49:56;6.80;99.90
16301;DHT22;8258;51.020;4.248;2023-12-14T03:52:25;6.80;99.90
16301;DHT22;8258;51.020;4.248;2023-12-14T03:55:11;6.80;99.90
16301;DHT22;8258;51.020;4.248;2023-12-14T04:32:09;6.80;99.90
16301;DHT22;8258;51.020;4.248;2023-12-14T04:40:13;6.80;99.90
16301;DHT22;8258;51.020;4.248;2023-12-14T04:42:40;6.80;99.90
16301;DHT22;8258;51.020;4.248;2023-12-14T05:00:44;6.70;99.90
16301;DHT22;8258;51.020;4.248;2023-12-14T05:03:13;6.60;99.90
16301;DHT22;8258;51.020;4.248;2023-12-14T05:05:42;6.60;99.90
16301;DHT22;8258;51.020;4.248;2023-12-14T05:08:09;6.60;99.90
16301;DHT22;8258;51.020;4.248;2023-12-14T05:10:37;6.60;99.90
16301;DHT22;8258;51.020;4.248;2023-12-14T05:13:04;6.60;99.90
16301;DHT22;8258;51.020;4.248;2023-12-14T05:15:32;6.50;99.90
16301;DHT22;8258;51.020;4.248;2023-12-14T05:18:00;6.50;99.90
16301;DHT22;8258;51.020;4.248;2023-12-14T05:20:28;6.50;99.90
16301;DHT22;8258;51.020;4.248;2023-12-14T05:22:55;6.60;99.90
16301;DHT22;8258;51.020;4.248;2023-12-14T05:25:23;6.50;99.90
16301;DHT22;8258;51.020;4.248;2023-12-14T05:27:51;6.50;99.90
16301;DHT22;8258;51.020;4.248;2023-12-14T05:30:18;6.60;99.90
16301;DHT22;8258;51.020;4.248;2023-12-14T05:32:45;6.60;99.90
16301;DHT22;8258;51.020;4.248;2023-12-14T05:35:16;6.60;99.90
16301;DHT22;8258;51.020;4.248;2023-12-14T05:37:44;6.60;99.90
16301;DHT22;8258;51.020;4.248;2023-12-14T05:40:11;6.60;99.90
16301;DHT22;8258;51.020;4.248;2023-12-14T05:42:38;6.50;99.90
16301;DHT22;8258;51.020;4.248;2023-12-14T05:45:07;6.50;99.90
16301;DHT22;8258;51.020;4.248;2023-12-14T05:47:35;6.60;99.90
16301;DHT22;8258;51.020;4.248;2023-12-14T05:50:05;6.60;99.90
16301;DHT22;8258;51.020;4.248;2023-12-14T05:52:48;6.60;99.90
16301;DHT22;8258;51.020;4.248;2023-12-14T05:55:18;6.60;99.90
16301;DHT22;8258;51.020;4.248;2023-12-14T05:57:50;6.60;99.90
16301;DHT22;8258;51.020;4.248;2023-12-14T06:00:30;6.50;99.90
16301;DHT22;8258;51.020;4.248;2023-12-14T06:03:00;6.50;99.90
16301;DHT22;8258;51.020;4.248;2023-12-14T06:05:30;6.50;99.90
16301;DHT22;8258;51.020;4.248;2023-12-14T06:08:01;6.50;99.90
16301;DHT22;8258;51.020;4.248;2023-12-14T06:10:28;6.40;99.90
16301;DHT22;8258;51.020;4.248;2023-12-14T06:12:58;6.40;99.90
16301;DHT22;8258;51.020;4.248;2023-12-14T06:15:27;6.50;99.90
16301;DHT22;8258;51.020;4.248;2023-12-14T06:17:55;6.50;99.90
16301;DHT22;8258;51.020;4.248;2023-12-14T06:20:22;6.40;99.90
16301;DHT22;8258;51.020;4.248;2023-12-14T06:22:49;6.40;99.90
16301;DHT22;8258;51.020;4.248;2023-12-14T06:25:22;6.50;99.90
16301;DHT22;8258;51.020;4.248;2023-12-14T06:27:51;6.50;99.90
16301;DHT22;8258;51.020;4.248;2023-12-14T07:16:51;5.10;99.90
16301;DHT22;8258;51.020;4.248;2023-12-14T07:19:41;5.20;99.90
16301;DHT22;8258;51.020;4.248;2023-12-14T07:22:22;5.20;99.90
16301;DHT22;8258;51.020;4.248;2023-12-14T09:13:33;7.50;99.90
16301;DHT22;8258;51.020;4.248;2023-12-14T09:24:02;7.40;99.90
16301;DHT22;8258;51.020;4.248;2023-12-14T10:55:37;8.90;99.90
16301;DHT22;8258;51.020;4.248;2023-12-14T10:58:27;9.20;99.90
16301;DHT22;8258;51.020;4.248;2023-12-14T11:04:06;9.10;99.90
16301;DHT22;8258;51.020;4.248;2023-12-14T11:09:17;8.50;99.90
16301;DHT22;8258;51.020;4.248;2023-12-14T11:11:55;8.20;99.90
16301;DHT22;8258;51.020;4.248;2023-12-14T11:14:25;8.10;99.90
16301;DHT22;8258;51.020;4.248;2023-12-14T11:16:55;8.00;99.90
16301;DHT22;8258;51.020;4.248;2023-12-14T11:19:29;8.00;99.90
16301;DHT22;8258;51.020;4.248;2023-12-14T11:22:13;8.00;99.90
16301;DHT22;8258;51.020;4.248;2023-12-14T11:24:51;8.10;99.90
16301;DHT22;8258;51.020;4.248;2023-12-14T11:27:29;8.20;99.90
16301;DHT22;8258;51.020;4.248;2023-12-14T11:29:57;8.10;99.90
16301;DHT22;8258;51.020;4.248;2023-12-14T11:32:26;8.20;99.90
16301;DHT22;8258;51.020;4.248;2023-12-14T11:34:54;8.30;99.90
16301;DHT22;8258;51.020;4.248;2023-12-14T11:37:22;8.20;99.90
16301;DHT22;8258;51.020;4.248;2023-12-14T11:39:50;8.10;99.90
16301;DHT22;8258;51.020;4.248;2023-12-14T11:42:19;7.90;99.90
16301;DHT22;8258;51.020;4.248;2023-12-14T11:44:48;7.70;99.90
16301;DHT22;8258;51.020;4.248;2023-12-14T11:47:15;7.70;99.90
16301;DHT22;8258;51.020;4.248;2023-12-14T11:49:43;7.70;99.90
16301;DHT22;8258;51.020;4.248;2023-12-14T11:52:11;7.80;99.90
16301;DHT22;8258;51.020;4.248;2023-12-14T11:54:38;7.80;99.90
16301;DHT22;8258;51.020;4.248;2023-12-14T11:57:05;7.70;99.90
16301;DHT22;8258;51.020;4.248;2023-12-14T11:59:35;7.70;99.90
16301;DHT22;8258;51.020;4.248;2023-12-14T12:02:05;7.70;99.90
16301;DHT22;8258;51.020;4.248;2023-12-14T12:04:32;7.70;99.90
16301;DHT22;8258;51.020;4.248;2023-12-14T12:07:01;7.70;99.90
16301;DHT22;8258;51.020;4.248;2023-12-14T12:09:35;7.70;99.90
16301;DHT22;8258;51.020;4.248;2023-12-14T12:12:08;7.70;99.90
16301;DHT22;8258;51.020;4.248;2023-12-14T12:14:37;7.80;99.90
16301;DHT22;8258;51.020;4.248;2023-12-14T12:17:07;7.90;99.90
16301;DHT22;8258;51.020;4.248;2023-12-14T12:19:36;7.90;99.90
16301;DHT22;8258;51.020;4.248;2023-12-14T12:22:04;7.90;99.90
16301;DHT22;8258;51.020;4.248;2023-12-14T12:24:31;7.80;99.90
16301;DHT22;8258;51.020;4.248;2023-12-14T12:26:58;7.80;99.90
16301;DHT22;8258;51.020;4.248;2023-12-14T12:29:25;7.90;99.90
16301;DHT22;8258;51.020;4.248;2023-12-14T12:31:52;7.80;99.90
16301;DHT22;8258;51.020;4.248;2023-12-14T12:34:21;7.90;99.90
16301;DHT22;8258;51.020;4.248;2023-12-14T12:36:49;7.80;99.90
16301;DHT22;8258;51.020;4.248;2023-12-14T12:39:16;7.90;99.90
16301;DHT22;8258;51.020;4.248;2023-12-14T12:41:43;7.90;99.90
16301;DHT22;8258;51.020;4.248;2023-12-14T12:44:10;7.80;99.90
16301;DHT22;8258;51.020;4.248;2023-12-14T12:46:39;7.80;99.90
16301;DHT22;8258;51.020;4.248;2023-12-14T12:49:07;7.90;99.90
16301;DHT22;8258;51.020;4.248;2023-12-14T12:51:37;7.90;99.90
16301;DHT22;8258;51.020;4.248;2023-12-14T12:54:04;7.80;99.90
16301;DHT22;8258;51.020;4.248;2023-12-14T12:56:31;7.80;99.90
16301;DHT22;8258;51.020;4.248;2023-12-14T12:58:59;7.90;99.90
16301;DHT22;8258;51.020;4.248;2023-12-14T13:01:27;7.80;99.90
16301;DHT22;8258;51.020;4.248;2023-12-14T13:03:54;7.80;99.90
16301;DHT22;8258;51.020;4.248;2023-12-14T13:06:23;7.90;99.90
16301;DHT22;8258;51.020;4.248;2023-12-14T13:08:52;7.90;99.90
16301;DHT22;8258;51.020;4.248;2023-12-14T13:11:20;7.90;99.90
16301;DHT22;8258;51.020;4.248;2023-12-14T13:13:48;7.90;99.90
16301;DHT22;8258;51.020;4.248;2023-12-14T13:16:15;7.90;99.90
16301;DHT22;8258;51.020;4.248;2023-12-14T13:18:43;8.10;99.90
16301;DHT22;8258;51.020;4.248;2023-12-14T13:21:11;8.20;99.90
16301;DHT22;8258;51.020;4.248;2023-12-14T13:23:38;8.20;99.90
16301;DHT22;8258;51.020;4.248;2023-12-14T13:26:07;8.20;99.90
16301;DHT22;8258;51.020;4.248;2023-12-14T13:28:35;8.20;99.90
16301;DHT22;8258;51.020;4.248;2023-12-14T13:31:02;8.20;99.90
16301;DHT22;8258;51.020;4.248;2023-12-14T13:33:29;8.20;99.90
16301;DHT22;8258;51.020;4.248;2023-12-14T13:35:57;8.20;99.90
16301;DHT22;8258;51.020;4.248;2023-12-14T13:38:24;8.30;99.90
16301;DHT22;8258;51.020;4.248;2023-12-14T13:40:51;8.30;99.90
16301;DHT22;8258;51.020;4.248;2023-12-14T13:43:20;8.30;99.90
16301;DHT22;8258;51.020;4.248;2023-12-14T13:45:47;8.30;99.90
16301;DHT22;8258;51.020;4.248;2023-12-14T13:48:16;8.30;99.90
16301;DHT22;8258;51.020;4.248;2023-12-14T13:50:43;8.30;99.90
16301;DHT22;8258;51.020;4.248;2023-12-14T13:53:10;8.30;99.90
16301;DHT22;8258;51.020;4.248;2023-12-14T13:55:37;8.30;99.90
16301;DHT22;8258;51.020;4.248;2023-12-14T13:58:04;8.30;99.90
16301;DHT22;8258;51.020;4.248;2023-12-14T14:00:33;8.30;99.90
16301;DHT22;8258;51.020;4.248;2023-12-14T14:03:01;8.30;99.90
16301;DHT22;8258;51.020;4.248;2023-12-14T14:05:29;8.30;99.90
16301;DHT22;8258;51.020;4.248;2023-12-14T14:07:59;8.40;99.90
16301;DHT22;8258;51.020;4.248;2023-12-14T14:10:26;8.40;99.90
16301;DHT22;8258;51.020;4.248;2023-12-14T14:12:53;8.30;99.90
16301;DHT22;8258;51.020;4.248;2023-12-14T14:15:21;8.30;99.90
16301;DHT22;8258;51.020;4.248;2023-12-14T14:17:50;8.40;99.90
16301;DHT22;8258;51.020;4.248;2023-12-14T14:20:21;8.40;99.90
16301;DHT22;8258;51.020;4.248;2023-12-14T14:22:50;8.30;99.90
16301;DHT22;8258;51.020;4.248;2023-12-14T14:25:17;8.40;99.90
16301;DHT22;8258;51.020;4.248;2023-12-14T14:27:45;8.30;99.90
16301;DHT22;8258;51.020;4.248;2023-12-14T14:30:14;8.40;99.90
16301;DHT22;8258;51.020;4.248;2023-12-14T14:32:41;8.30;99.90
16301;DHT22;8258;51.020;4.248;2023-12-14T14:35:12;8.20;99.90
16301;DHT22;8258;51.020;4.248;2023-12-14T14:37:40;8.20;99.90
16301;DHT22;8258;51.020;4.248;2023-12-14T14:40:12;8.10;99.90
16301;DHT22;8258;51.020;4.248;2023-12-14T14:42:41;8.10;99.90
16301;DHT22;8258;51.020;4.248;2023-12-14T14:45:09;8.10;99.90
16301;DHT22;8258;51.020;4.248;2023-12-14T14:47:37;8.10;99.90
16301;DHT22;8258;51.020;4.248;2023-12-14T14:50:05;8.10;99.90
16301;DHT22;8258;51.020;4.248;2023-12-14T14:52:35;8.00;99.90
16301;DHT22;8258;51.020;4.248;2023-12-14T14:55:02;8.00;99.90
16301;DHT22;8258;51.020;4.248;2023-12-14T14:57:30;7.90;99.90
16301;DHT22;8258;51.020;4.248;2023-12-14T14:59:59;7.90;99.90
16301;DHT22;8258;51.020;4.248;2023-12-14T15:02:26;7.90;99.90
16301;DHT22;8258;51.020;4.248;2023-12-14T15:04:54;7.80;99.90
16301;DHT22;8258;51.020;4.248;2023-12-14T15:07:21;7.80;99.90
16301;DHT22;8258;51.020;4.248;2023-12-14T15:09:50;7.70;99.90
16301;DHT22;8258;51.020;4.248;2023-12-14T15:12:17;7.70;99.90
16301;DHT22;8258;51.020;4.248;2023-12-14T15:14:44;7.70;99.90
16301;DHT22;8258;51.020;4.248;2023-12-14T15:17:12;7.70;99.90
16301;DHT22;8258;51.020;4.248;2023-12-14T15:19:39;7.70;99.90
16301;DHT22;8258;51.020;4.248;2023-12-14T15:22:07;7.80;99.90
16301;DHT22;8258;51.020;4.248;2023-12-14T15:24:34;7.70;99.90
16301;DHT22;8258;51.020;4.248;2023-12-14T15:27:04;7.70;99.90
16301;DHT22;8258;51.020;4.248;2023-12-14T15:29:31;7.60;99.90
16301;DHT22;8258;51.020;4.248;2023-12-14T15:31:58;7.70;99.90
16301;DHT22;8258;51.020;4.248;2023-12-14T15:34:26;7.70;99.90
16301;DHT22;8258;51.020;4.248;2023-12-14T15:36:53;7.60;99.90
16301;DHT22;8258;51.020;4.248;2023-12-14T15:39:22;7.60;99.90
16301;DHT22;8258;51.020;4.248;2023-12-14T15:41:49;7.60;99.90
16301;DHT22;8258;51.020;4.248;2023-12-14T15:44:17;7.60;99.90
16301;DHT22;8258;51.020;4.248;2023-12-14T15:46:45;7.60;99.90
16301;DHT22;8258;51.020;4.248;2023-12-14T15:49:12;7.60;99.90
16301;DHT22;8258;51.020;4.248;2023-12-14T15:51:39;7.60;99.90
16301;DHT22;8258;51.020;4.248;2023-12-14T15:54:07;7.60;99.90
16301;DHT22;8258;51.020;4.248;2023-12-14T15:56:34;7.60;99.90
16301;DHT22;8258;51.020;4.248;2023-12-14T15:59:01;7.60;99.90
16301;DHT22;8258;51.020;4.248;2023-12-14T16:01:30;7.50;99.90
16301;DHT22;8258;51.020;4.248;2023-12-14T16:03:57;7.50;99.90
16301;DHT22;8258;51.020;4.248;2023-12-14T16:06:24;7.50;99.90
16301;DHT22;8258;51.020;4.248;2023-12-14T16:08:51;7.50;99.90
16301;DHT22;8258;51.020;4.248;2023-12-14T16:11:18;7.50;99.90
16301;DHT22;8258;51.020;4.248;2023-12-14T16:13:45;7.50;99.90
16301;DHT22;8258;51.020;4.248;2023-12-14T16:16:12;7.50;99.90
16301;DHT22;8258;51.020;4.248;2023-12-14T16:18:40;7.50;99.90
16301;DHT22;8258;51.020;4.248;2023-12-14T16:21:07;7.50;99.90
16301;DHT22;8258;51.020;4.248;2023-12-14T16:23:36;7.40;99.90
16301;DHT22;8258;51.020;4.248;2023-12-14T16:26:06;7.40;99.90
16301;DHT22;8258;51.020;4.248;2023-12-14T16:28:34;7.40;99.90
16301;DHT22;8258;51.020;4.248;2023-12-14T16:31:03;7.40;99.90
16301;DHT22;8258;51.020;4.248;2023-12-14T16:33:30;7.40;99.90
16301;DHT22;8258;51.020;4.248;2023-12-14T16:35:58;7.40;99.90
16301;DHT22;8258;51.020;4.248;2023-12-14T16:38:25;7.30;99.90
16301;DHT22;8258;51.020;4.248;2023-12-14T16:40:52;7.30;99.90
16301;DHT22;8258;51.020;4.248;2023-12-14T16:43:20;7.30;99.90
16301;DHT22;8258;51.020;4.248;2023-12-14T16:45:47;7.20;99.90
16301;DHT22;8258;51.020;4.248;2023-12-14T16:48:20;7.10;99.90
16301;DHT22;8258;51.020;4.248;2023-12-14T16:50:48;7.20;99.90
16301;DHT22;8258;51.020;4.248;2023-12-14T16:53:20;7.20;99.90
16301;DHT22;8258;51.020;4.248;2023-12-14T16:55:47;7.20;99.90
16301;DHT22;8258;51.020;4.248;2023-12-14T16:58:16;7.00;99.90
16301;DHT22;8258;51.020;4.248;2023-12-14T17:00:43;6.90;99.90
16301;DHT22;8258;51.020;4.248;2023-12-14T17:03:10;6.90;99.90
16301;DHT22;8258;51.020;4.248;2023-12-14T17:05:38;6.90;99.90
16301;DHT22;8258;51.020;4.248;2023-12-14T17:08:04;7.00;99.90
16301;DHT22;8258;51.020;4.248;2023-12-14T17:10:33;7.00;99.90
16301;DHT22;8258;51.020;4.248;2023-12-14T17:13:00;7.00;99.90
16301;DHT22;8258;51.020;4.248;2023-12-14T17:15:28;7.00;99.90
16301;DHT22;8258;51.020;4.248;2023-12-14T17:17:58;7.00;99.90
16301;DHT22;8258;51.020;4.248;2023-12-14T17:20:25;7.00;99.90
16301;DHT22;8258;51.020;4.248;2023-12-14T17:22:52;6.90;99.90
16301;DHT22;8258;51.020;4.248;2023-12-14T17:25:20;6.80;99.90
16301;DHT22;8258;51.020;4.248;2023-12-14T17:27:48;6.90;99.90
16301;DHT22;8258;51.020;4.248;2023-12-14T17:30:15;6.80;99.90
16301;DHT22;8258;51.020;4.248;2023-12-14T17:32:42;6.70;99.90
16301;DHT22;8258;51.020;4.248;2023-12-14T17:35:09;6.70;99.90
16301;DHT22;8258;51.020;4.248;2023-12-14T17:37:37;6.70;99.90
16301;DHT22;8258;51.020;4.248;2023-12-14T17:40:05;6.60;99.90
16301;DHT22;8258;51.020;4.248;2023-12-14T17:42:33;6.70;99.90
16301;DHT22;8258;51.020;4.248;2023-12-14T17:45:02;6.70;99.90
16301;DHT22;8258;51.020;4.248;2023-12-14T17:47:29;6.70;99.90
16301;DHT22;8258;51.020;4.248;2023-12-14T17:49:57;6.80;99.90
16301;DHT22;8258;51.020;4.248;2023-12-14T17:52:25;6.70;99.90
16301;DHT22;8258;51.020;4.248;2023-12-14T17:54:53;6.80;99.90
16301;DHT22;8258;51.020;4.248;2023-12-14T17:57:20;6.70;99.90
16301;DHT22;8258;51.020;4.248;2023-12-14T17:59:47;6.70;99.90
16301;DHT22;8258;51.020;4.248;2023-12-14T18:02:15;6.70;99.90
16301;DHT22;8258;51.020;4.248;2023-12-14T18:04:43;6.70;99.90
16301;DHT22;8258;51.020;4.248;2023-12-14T18:07:10;6.80;99.90
16301;DHT22;8258;51.020;4.248;2023-12-14T18:09:38;6.80;99.90
16301;DHT22;8258;51.020;4.248;2023-12-14T18:12:13;6.80;99.90
16301;DHT22;8258;51.020;4.248;2023-12-14T18:14:40;6.80;99.90
16301;DHT22;8258;51.020;4.248;2023-12-14T18:17:13;6.80;99.90
16301;DHT22;8258;51.020;4.248;2023-12-14T18:20:11;6.80;99.90
16301;DHT22;8258;51.020;4.248;2023-12-14T18:22:43;6.90;99.90
16301;DHT22;8258;51.020;4.248;2023-12-14T18:25:10;6.90;99.90
16301;DHT22;8258;51.020;4.248;2023-12-14T18:27:38;6.90;99.90
16301;DHT22;8258;51.020;4.248;2023-12-14T18:30:06;6.90;99.90
16301;DHT22;8258;51.020;4.248;2023-12-14T18:32:35;7.00;99.90
16301;DHT22;8258;51.020;4.248;2023-12-14T18:35:04;7.00;99.90
16301;DHT22;8258;51.020;4.248;2023-12-14T18:37:31;7.00;99.90
16301;DHT22;8258;51.020;4.248;2023-12-14T18:39:58;7.00;99.90
16301;DHT22;8258;51.020;4.248;2023-12-14T18:42:25;7.10;99.90
16301;DHT22;8258;51.020;4.248;2023-12-14T18:44:53;7.10;99.90
16301;DHT22;8258;51.020;4.248;2023-12-14T18:47:20;7.00;99.90
16301;DHT22;8258;51.020;4.248;2023-12-14T18:49:48;7.10;99.90
16301;DHT22;8258;51.020;4.248;2023-12-14T18:52:16;7.10;99.90
16301;DHT22;8258;51.020;4.248;2023-12-14T18:54:45;7.10;99.90
16301;DHT22;8258;51.020;4.248;2023-12-14T18:57:13;7.10;99.90
16301;DHT22;8258;51.020;4.248;2023-12-14T18:59:40;7.10;99.90
16301;DHT22;8258;51.020;4.248;2023-12-14T19:02:07;7.00;99.90
16301;DHT22;8258;51.020;4.248;2023-12-14T19:04:34;7.10;99.90
16301;DHT22;8258;51.020;4.248;2023-12-14T19:07:02;7.00;99.90
16301;DHT22;8258;51.020;4.248;2023-12-14T19:09:30;7.00;99.90
16301;DHT22;8258;51.020;4.248;2023-12-14T19:11:58;7.00;99.90
16301;DHT22;8258;51.020;4.248;2023-12-14T19:14:25;7.00;99.90
16301;DHT22;8258;51.020;4.248;2023-12-14T19:16:52;7.00;99.90
16301;DHT22;8258;51.020;4.248;2023-12-14T19:19:20;7.00;99.90
16301;DHT22;8258;51.020;4.248;2023-12-14T19:21:47;7.00;99.90
16301;DHT22;8258;51.020;4.248;2023-12-14T19:24:14;7.10;99.90
16301;DHT22;8258;51.020;4.248;2023-12-14T19:26:43;7.00;99.90
16301;DHT22;8258;51.020;4.248;2023-12-14T19:29:10;7.00;99.90
16301;DHT22;8258;51.020;4.248;2023-12-14T19:31:40;7.00;99.90
16301;DHT22;8258;51.020;4.248;2023-12-14T19:34:07;7.00;99.90
16301;DHT22;8258;51.020;4.248;2023-12-14T19:36:34;7.00;99.90
16301;DHT22;8258;51.020;4.248;2023-12-14T19:39:01;7.00;99.90
16301;DHT22;8258;51.020;4.248;2023-12-14T19:41:29;7.00;99.90
16301;DHT22;8258;51.020;4.248;2023-12-14T19:43:58;7.00;99.90
16301;DHT22;8258;51.020;4.248;2023-12-14T19:46:27;7.00;99.90
16301;DHT22;8258;51.020;4.248;2023-12-14T19:48:54;7.00;99.90
16301;DHT22;8258;51.020;4.248;2023-12-14T19:51:21;7.00;99.90
16301;DHT22;8258;51.020;4.248;2023-12-14T19:53:48;7.00;99.90
16301;DHT22;8258;51.020;4.248;2023-12-14T19:56:15;7.00;99.90
16301;DHT22;8258;51.020;4.248;2023-12-14T19:58:43;7.00;99.90
16301;DHT22;8258;51.020;4.248;2023-12-14T20:01:12;7.00;99.90
16301;DHT22;8258;51.020;4.248;2023-12-14T20:03:42;7.00;99.90
16301;DHT22;8258;51.020;4.248;2023-12-14T20:06:19;7.00;99.90
16301;DHT22;8258;51.020;4.248;2023-12-14T20:08:49;7.00;99.90
16301;DHT22;8258;51.020;4.248;2023-12-14T20:11:16;7.00;99.90
16301;DHT22;8258;51.020;4.248;2023-12-14T20:13:43;7.00;99.90
16301;DHT22;8258;51.020;4.248;2023-12-14T20:16:12;7.00;99.90
16301;DHT22;8258;51.020;4.248;2023-12-14T20:18:39;7.10;99.90
16301;DHT22;8258;51.020;4.248;2023-12-14T20:21:06;7.10;99.90
16301;DHT22;8258;51.020;4.248;2023-12-14T20:23:33;7.00;99.90
16301;DHT22;8258;51.020;4.248;2023-12-14T20:26:00;7.00;99.90
16301;DHT22;8258;51.020;4.248;2023-12-14T20:28:27;7.10;99.90
16301;DHT22;8258;51.020;4.248;2023-12-14T20:30:54;7.10;99.90
16301;DHT22;8258;51.020;4.248;2023-12-14T20:33:23;7.00;99.90
16301;DHT22;8258;51.020;4.248;2023-12-14T20:35:50;7.00;99.90
16301;DHT22;8258;51.020;4.248;2023-12-14T20:38:17;7.00;99.90
16301;DHT22;8258;51.020;4.248;2023-12-14T20:40:44;6.90;99.90
16301;DHT22;8258;51.020;4.248;2023-12-14T20:43:11;6.90;99.90
16301;DHT22;8258;51.020;4.248;2023-12-14T20:45:39;6.90;99.90
16301;DHT22;8258;51.020;4.248;2023-12-14T20:48:06;6.90;99.90
16301;DHT22;8258;51.020;4.248;2023-12-14T20:50:35;6.90;99.90
16301;DHT22;8258;51.020;4.248;2023-12-14T20:53:02;6.90;99.90
16301;DHT22;8258;51.020;4.248;2023-12-14T20:55:29;6.90;99.90
16301;DHT22;8258;51.020;4.248;2023-12-14T20:57:56;6.90;99.90
16301;DHT22;8258;51.020;4.248;2023-12-14T21:00:23;6.90;99.90
16301;DHT22;8258;51.020;4.248;2023-12-14T21:02:50;6.90;99.90
16301;DHT22;8258;51.020;4.248;2023-12-14T21:05:18;6.90;99.90
16301;DHT22;8258;51.020;4.248;2023-12-14T21:07:46;6.90;99.90
16301;DHT22;8258;51.020;4.248;2023-12-14T21:10:13;6.90;99.90
16301;DHT22;8258;51.020;4.248;2023-12-14T21:12:41;6.90;99.90
16301;DHT22;8258;51.020;4.248;2023-12-14T21:15:08;6.90;99.90
16301;DHT22;8258;51.020;4.248;2023-12-14T21:17:35;6.90;99.90
16301;DHT22;8258;51.020;4.248;2023-12-14T21:20:03;6.80;99.90
16301;DHT22;8258;51.020;4.248;2023-12-14T21:22:30;6.80;99.90
16301;DHT22;8258;51.020;4.248;2023-12-14T21:24:59;6.70;99.90
16301;DHT22;8258;51.020;4.248;2023-12-14T21:27:29;6.70;99.90
16301;DHT22;8258;51.020;4.248;2023-12-14T21:30:11;6.70;99.90
16301;DHT22;8258;51.020;4.248;2023-12-14T21:32:39;6.70;99.90
16301;DHT22;8258;51.020;4.248;2023-12-14T21:35:07;6.60;99.90
16301;DHT22;8258;51.020;4.248;2023-12-14T21:37:34;6.60;99.90
16301;DHT22;8258;51.020;4.248;2023-12-14T21:40:03;6.60;99.90
16301;DHT22;8258;51.020;4.248;2023-12-14T21:42:32;6.60;99.90
16301;DHT22;8258;51.020;4.248;2023-12-14T21:44:59;6.60;99.90
16301;DHT22;8258;51.020;4.248;2023-12-14T21:47:26;6.60;99.90
16301;DHT22;8258;51.020;4.248;2023-12-14T21:49:55;6.60;99.90
16301;DHT22;8258;51.020;4.248;2023-12-14T21:52:22;6.60;99.90
16301;DHT22;8258;51.020;4.248;2023-12-14T21:54:49;6.60;99.90
16301;DHT22;8258;51.020;4.248;2023-12-14T21:57:17;6.70;99.90
16301;DHT22;8258;51.020;4.248;2023-12-14T21:59:44;6.70;99.90
16301;DHT22;8258;51.020;4.248;2023-12-14T22:02:12;6.70;99.90
16301;DHT22;8258;51.020;4.248;2023-12-14T22:04:39;6.70;99.90
16301;DHT22;8258;51.020;4.248;2023-12-14T22:07:06;6.70;99.90
16301;DHT22;8258;51.020;4.248;2023-12-14T22:09:33;6.70;99.90
16301;DHT22;8258;51.020;4.248;2023-12-14T22:12:00;6.70;99.90
16301;DHT22;8258;51.020;4.248;2023-12-14T22:14:28;6.70;99.90
16301;DHT22;8258;51.020;4.248;2023-12-14T22:16:56;6.70;99.90
16301;DHT22;8258;51.020;4.248;2023-12-14T22:19:23;6.70;99.90
16301;DHT22;8258;51.020;4.248;2023-12-14T22:21:51;6.70;99.90
16301;DHT22;8258;51.020;4.248;2023-12-14T22:24:20;6.70;99.90
16301;DHT22;8258;51.020;4.248;2023-12-14T23:19:34;7.00;99.90
16301;DHT22;8258;51.020;4.248;2023-12-14T23:22:02;7.00;99.90
16301;DHT22;8258;51.020;4.248;2023-12-14T23:24:29;7.00;99.90
16301;DHT22;8258;51.020;4.248;2023-12-14T23:58:11;7.00;99.90
